createdAt,value
2022-11-08T15:31:59.909Z,25.88
2022-11-08T15:34:40.993Z,29.38
2022-11-08T15:37:42.938Z,26.70
2022-11-08T15:40:24.598Z,25.02
2022-11-08T15:42:52.889Z,28.08
2022-11-08T15:45:25.760Z,32.47
2022-11-08T15:47:54.883Z,29.10
2022-11-08T15:50:30.540Z,30.48
2022-11-08T15:53:00.811Z,31.63
2022-11-08T15:55:51.991Z,27.67
2022-11-08T15:58:37.164Z,30.00
2022-11-08T16:01:06.408Z,35.85
2022-11-08T16:03:35.351Z,37.55
2022-11-08T16:06:02.551Z,35.47
2022-11-08T16:08:29.994Z,33.95
2022-11-08T16:11:01.631Z,34.25
2022-11-08T16:13:32.126Z,34.58
2022-11-08T16:16:00.556Z,37.40
2022-11-08T16:18:28.273Z,34.30
2022-11-08T16:20:55.696Z,35.45
2022-11-08T16:23:22.972Z,32.50
2022-11-08T16:25:53.514Z,36.85
2022-11-08T16:28:34.428Z,34.22
2022-11-08T16:31:03.074Z,43.10
2022-11-08T16:33:32.417Z,39.53
2022-11-08T16:36:03.850Z,49.97
2022-11-08T16:38:36.329Z,52.03
2022-11-08T16:41:05.284Z,36.30
2022-11-08T16:43:33.815Z,35.97
2022-11-08T16:46:07.168Z,38.50
2022-11-08T16:48:39.646Z,36.92
2022-11-08T16:51:13.997Z,34.65
2022-11-08T16:53:41.380Z,40.22
2022-11-08T16:56:08.997Z,36.22
2022-11-08T16:58:36.419Z,35.65
2022-11-08T17:01:10.292Z,35.10
2022-11-08T17:03:38.252Z,38.63
2022-11-08T17:06:05.825Z,39.35
2022-11-08T17:08:33.157Z,38.63
2022-11-08T17:11:01.025Z,38.22
2022-11-08T17:13:28.312Z,40.03
2022-11-08T17:15:55.909Z,40.10
2022-11-08T17:18:24.116Z,41.60
2022-11-08T17:20:52.463Z,43.42
2022-11-08T17:23:22.832Z,44.78
2022-11-08T17:25:50.201Z,48.75
2022-11-08T17:28:18.163Z,50.05
2022-11-08T17:30:45.623Z,48.08
2022-11-08T17:33:13.870Z,44.03
2022-11-08T17:35:44.349Z,56.20
2022-11-08T17:38:15.388Z,64.10
2022-11-08T17:40:42.885Z,63.40
2022-11-08T17:43:10.838Z,64.75
2022-11-08T17:45:38.344Z,55.97
2022-11-08T17:48:05.640Z,54.50
2022-11-08T17:50:33.084Z,55.63
2022-11-08T17:53:00.569Z,57.47
2022-11-08T17:55:28.235Z,51.58
2022-11-08T17:57:56.087Z,57.92
2022-11-08T18:00:23.701Z,57.65
2022-11-08T18:02:51.311Z,55.90
2022-11-08T18:05:18.394Z,56.47
2022-11-08T18:07:45.936Z,54.70
2022-11-08T18:10:14.765Z,50.03
2022-11-08T18:12:42.366Z,47.38
2022-11-08T18:15:10.347Z,54.75
2022-11-08T18:17:37.868Z,57.47
2022-11-08T18:20:06.332Z,57.33
2022-11-08T18:22:36.752Z,56.60
2022-11-08T18:25:05.208Z,56.30
2022-11-08T18:27:32.869Z,53.10
2022-11-08T18:30:03.005Z,59.38
2022-11-08T18:32:30.750Z,54.80
2022-11-08T18:34:58.002Z,63.25
2022-11-08T18:37:26.597Z,55.47
2022-11-08T18:39:54.325Z,62.00
2022-11-08T18:42:22.194Z,57.03
2022-11-08T18:44:49.659Z,59.58
2022-11-08T18:47:25.411Z,59.00
2022-11-08T18:49:56.357Z,55.70
2022-11-08T18:52:23.930Z,59.38
2022-11-08T18:54:51.938Z,64.15
2022-11-08T18:57:20.543Z,59.65
2022-11-08T18:59:48.506Z,56.67
2022-11-08T19:02:16.220Z,58.55
2022-11-08T19:04:43.342Z,64.53
2022-11-08T19:07:10.928Z,63.28
2022-11-08T19:09:40.166Z,69.68
2022-11-08T19:12:07.762Z,71.55
2022-11-08T19:14:37.262Z,70.07
2022-11-08T19:17:05.116Z,60.83
2022-11-08T19:19:32.763Z,68.68
2022-11-08T19:22:00.418Z,70.70
2022-11-08T19:24:31.174Z,68.53
2022-11-08T19:26:59.686Z,68.80
2022-11-08T19:29:30.196Z,67.30
2022-11-08T19:31:58.018Z,64.60
2022-11-08T19:34:25.354Z,64.03
2022-11-08T19:36:55.787Z,67.82
2022-11-08T19:39:25.294Z,65.28
2022-11-08T19:41:52.704Z,71.13
2022-11-08T19:44:20.524Z,65.93
2022-11-08T19:46:47.980Z,72.53
2022-11-08T19:49:16.001Z,71.13
2022-11-08T19:51:44.706Z,67.13
2022-11-08T19:54:14.230Z,72.78
2022-11-08T19:59:29.774Z,74.28
2022-11-08T20:01:57.202Z,76.13
2022-11-08T20:04:24.972Z,77.93
2022-11-08T20:06:52.473Z,85.80
2022-11-08T20:09:20.151Z,78.32
2022-11-08T20:11:47.788Z,75.22
2022-11-08T20:14:17.686Z,77.05
2022-11-08T20:16:53.211Z,78.38
2022-11-08T20:19:21.727Z,76.13
2022-11-08T20:21:49.831Z,80.65
2022-11-08T20:24:17.847Z,76.63
2022-11-08T20:26:45.931Z,73.38
2022-11-08T20:29:15.365Z,79.90
2022-11-08T20:31:43.178Z,75.60
2022-11-08T20:34:12.418Z,85.15
2022-11-08T20:36:43.128Z,80.95
2022-11-08T20:39:12.622Z,83.90
2022-11-08T20:41:41.933Z,81.25
2022-11-08T20:44:13.815Z,84.03
2022-11-08T20:46:41.846Z,81.22
2022-11-08T20:49:09.752Z,88.22
2022-11-08T20:51:37.837Z,82.80
2022-11-08T20:54:05.598Z,84.07
2022-11-08T20:56:33.178Z,86.40
2022-11-08T20:59:01.097Z,79.90
2022-11-08T21:01:31.158Z,90.40
2022-11-08T21:03:58.673Z,81.53
2022-11-08T21:06:27.825Z,81.78
2022-11-08T21:09:01.960Z,81.78
2022-11-08T21:11:34.960Z,81.50
2022-11-08T21:14:03.849Z,78.38
2022-11-08T21:16:42.406Z,80.03
2022-11-08T21:19:14.900Z,80.25
2022-11-08T21:21:46.655Z,79.22
2022-11-08T21:24:14.349Z,81.10
2022-11-08T21:26:44.373Z,77.68
2022-11-08T21:29:11.560Z,78.55
2022-11-08T21:31:38.772Z,78.93
2022-11-08T21:34:06.303Z,78.10
2022-11-08T21:36:34.304Z,77.47
2022-11-08T21:39:01.657Z,83.80
2022-11-08T21:41:28.883Z,77.43
2022-11-08T21:43:56.687Z,82.13
2022-11-08T21:46:27.442Z,83.03
2022-11-08T21:49:00.430Z,77.85
2022-11-08T21:51:29.682Z,71.70
2022-11-08T21:53:58.840Z,81.00
2022-11-08T21:56:29.656Z,78.07
2022-11-08T21:58:56.829Z,81.53
2022-11-08T22:01:29.910Z,75.07
2022-11-08T22:03:58.549Z,84.47
2022-11-08T22:06:25.806Z,82.70
2022-11-08T22:08:52.831Z,83.95
2022-11-08T22:11:19.818Z,84.03
2022-11-08T22:13:46.928Z,82.43
2022-11-08T22:16:13.884Z,91.15
2022-11-08T22:21:41.273Z,86.03
2022-11-08T22:24:22.694Z,86.18
2022-11-08T22:26:51.875Z,88.55
2022-11-08T22:29:19.426Z,90.35
2022-11-08T22:31:47.088Z,90.60
2022-11-08T22:34:14.282Z,94.55
2022-11-08T22:36:45.210Z,88.90
2022-11-08T22:39:20.623Z,91.03
2022-11-08T22:41:50.917Z,103.10
2022-11-08T22:44:18.899Z,95.07
2022-11-08T22:46:47.430Z,92.32
2022-11-08T22:49:15.454Z,88.50
2022-11-08T22:51:43.193Z,91.75
2022-11-08T22:54:10.685Z,96.00
2022-11-08T22:56:38.417Z,99.78
2022-11-08T22:59:05.464Z,98.82
2022-11-08T23:01:33.179Z,99.55
2022-11-08T23:04:00.630Z,91.38
2022-11-08T23:06:27.674Z,95.55
2022-11-08T23:08:54.755Z,95.35
2022-11-08T23:11:40.473Z,97.97
2022-11-08T23:14:32.433Z,100.38
2022-11-08T23:17:03.014Z,95.80
2022-11-08T23:19:48.542Z,99.88
2022-11-08T23:22:36.354Z,103.18
2022-11-08T23:25:04.725Z,97.07
2022-11-08T23:27:50.426Z,97.97
2022-11-08T23:30:37.267Z,106.05
2022-11-08T23:33:05.899Z,100.05
2022-11-08T23:35:33.187Z,100.38
2022-11-08T23:38:00.171Z,102.88
2022-11-08T23:40:45.808Z,105.63
2022-11-08T23:43:32.483Z,104.28
2022-11-08T23:46:09.711Z,110.63
2022-11-08T23:48:37.818Z,105.47
2022-11-08T23:51:05.837Z,104.35
2022-11-08T23:53:34.711Z,96.00
2022-11-08T23:56:01.692Z,105.45
2022-11-08T23:58:28.926Z,100.78
